sensor_id;sensor_type;location;lat;lon;timestamp;pressure;altitude;pressure_sealevel;temperature;humidity
60897;BME280;46749;32.932;-117.130;2023-02-13T00:02:19;100999.31;;;14.89;55.05
60897;BME280;46749;32.932;-117.130;2023-02-13T00:04:45;100991.47;;;14.89;55.42
60897;BME280;46749;32.932;-117.130;2023-02-13T00:07:11;100997.63;;;14.91;55.20
60897;BME280;46749;32.932;-117.130;2023-02-13T00:09:38;101007.22;;;14.90;55.22
60897;BME280;46749;32.932;-117.130;2023-02-13T00:12:05;100993.25;;;14.90;55.20
60897;BME280;46749;32.932;-117.130;2023-02-13T00:14:36;100995.88;;;14.90;55.22
60897;BME280;46749;32.932;-117.130;2023-02-13T00:17:04;101002.00;;;14.90;55.30
60897;BME280;46749;32.932;-117.130;2023-02-13T00:19:30;100997.63;;;14.91;55.32
60897;BME280;46749;32.932;-117.130;2023-02-13T00:21:56;100992.41;;;14.91;55.33
60897;BME280;46749;32.932;-117.130;2023-02-13T00:24:23;100987.19;;;14.91;55.20
60897;BME280;46749;32.932;-117.130;2023-02-13T00:26:49;100987.19;;;14.91;55.37
60897;BME280;46749;32.932;-117.130;2023-02-13T00:29:15;100986.31;;;14.92;55.14
60897;BME280;46749;32.932;-117.130;2023-02-13T00:31:42;100976.72;;;14.91;55.10
60897;BME280;46749;32.932;-117.130;2023-02-13T00:34:08;100982.84;;;14.91;55.33
60897;BME280;46749;32.932;-117.130;2023-02-13T00:36:35;100983.72;;;14.92;55.36
60897;BME280;46749;32.932;-117.130;2023-02-13T00:39:01;100980.22;;;14.91;55.57
60897;BME280;46749;32.932;-117.130;2023-02-13T00:41:27;100984.59;;;14.92;55.28
60897;BME280;46749;32.932;-117.130;2023-02-13T00:43:53;100993.31;;;14.93;55.22
60897;BME280;46749;32.932;-117.130;2023-02-13T00:46:20;100989.81;;;14.92;55.06
60897;BME280;46749;32.932;-117.130;2023-02-13T00:48:46;100983.72;;;14.92;55.36
60897;BME280;46749;32.932;-117.130;2023-02-13T00:51:12;100983.75;;;14.93;55.02
60897;BME280;46749;32.932;-117.130;2023-02-13T00:53:38;100986.34;;;14.93;55.25
60897;BME280;46749;32.932;-117.130;2023-02-13T00:56:05;100978.47;;;14.92;55.30
60897;BME280;46749;32.932;-117.130;2023-02-13T00:58:32;100977.63;;;14.93;54.96
60897;BME280;46749;32.932;-117.130;2023-02-13T01:00:59;100972.41;;;14.93;55.28
60897;BME280;46749;32.932;-117.130;2023-02-13T01:03:25;100971.53;;;14.94;55.42
60897;BME280;46749;32.932;-117.130;2023-02-13T01:05:52;100964.56;;;14.93;55.41
60897;BME280;46749;32.932;-117.130;2023-02-13T01:08:19;100960.19;;;14.93;55.10
60897;BME280;46749;32.932;-117.130;2023-02-13T01:10:46;100964.56;;;14.93;55.20
60897;BME280;46749;32.932;-117.130;2023-02-13T01:13:14;100968.91;;;14.92;55.38
60897;BME280;46749;32.932;-117.130;2023-02-13T01:15:41;100963.69;;;14.94;55.34
60897;BME280;46749;32.932;-117.130;2023-02-13T01:18:08;100964.56;;;14.93;54.97
60897;BME280;46749;32.932;-117.130;2023-02-13T01:20:34;100959.31;;;14.93;55.27
60897;BME280;46749;32.932;-117.130;2023-02-13T01:23:00;100954.97;;;14.93;55.10
60897;BME280;46749;32.932;-117.130;2023-02-13T01:25:27;100961.09;;;14.94;55.08
60897;BME280;46749;32.932;-117.130;2023-02-13T01:27:53;100966.31;;;14.94;55.28
60897;BME280;46749;32.932;-117.130;2023-02-13T01:30:19;100964.56;;;14.94;55.11
60897;BME280;46749;32.932;-117.130;2023-02-13T01:32:46;100961.97;;;14.94;55.13
60897;BME280;46749;32.932;-117.130;2023-02-13T01:35:13;100966.34;;;14.95;55.26
60897;BME280;46749;32.932;-117.130;2023-02-13T01:37:40;100971.53;;;14.94;54.96
60897;BME280;46749;32.932;-117.130;2023-02-13T01:40:11;100966.31;;;14.94;55.08
60897;BME280;46749;32.932;-117.130;2023-02-13T01:42:38;100978.53;;;14.95;55.15
60897;BME280;46749;32.932;-117.130;2023-02-13T01:45:18;100975.91;;;14.95;55.00
60897;BME280;46749;32.932;-117.130;2023-02-13T01:48:05;100978.53;;;14.95;55.13
60897;BME280;46749;32.932;-117.130;2023-02-13T01:50:36;100976.81;;;14.95;54.99
60897;BME280;46749;32.932;-117.130;2023-02-13T01:53:13;100985.53;;;14.96;55.09
60897;BME280;46749;32.932;-117.130;2023-02-13T01:55:53;100984.66;;;14.95;55.13
60897;BME280;46749;32.932;-117.130;2023-02-13T01:58:22;100981.22;;;14.96;55.07
60897;BME280;46749;32.932;-117.130;2023-02-13T02:00:50;100980.28;;;14.96;55.11
60897;BME280;46749;32.932;-117.130;2023-02-13T02:03:20;100975.97;;;14.96;55.27
60897;BME280;46749;32.932;-117.130;2023-02-13T02:05:49;100977.69;;;14.96;54.89
60897;BME280;46749;32.932;-117.130;2023-02-13T02:08:17;100982.09;;;14.97;55.15
60897;BME280;46749;32.932;-117.130;2023-02-13T02:10:44;100982.09;;;14.97;55.11
60897;BME280;46749;32.932;-117.130;2023-02-13T02:13:12;100982.09;;;14.97;55.24
60897;BME280;46749;32.932;-117.130;2023-02-13T02:15:40;100980.28;;;14.96;55.06
60897;BME280;46749;32.932;-117.130;2023-02-13T02:18:22;100980.28;;;14.96;55.13
60897;BME280;46749;32.932;-117.130;2023-02-13T02:21:25;100984.72;;;14.97;55.24
60897;BME280;46749;32.932;-117.130;2023-02-13T02:35:58;100970.75;;;14.96;55.00
60897;BME280;46749;32.932;-117.130;2023-02-13T02:43:54;100971.69;;;15.00;55.10
60897;BME280;46749;32.932;-117.130;2023-02-13T02:46:36;100970.03;;;15.03;55.17
60897;BME280;46749;32.932;-117.130;2023-02-13T02:49:24;100975.31;;;15.06;55.36
60897;BME280;46749;32.932;-117.130;2023-02-13T02:52:19;100982.38;;;15.10;55.74
60897;BME280;46749;32.932;-117.130;2023-02-13T02:55:03;100976.31;;;15.13;55.70
60897;BME280;46749;32.932;-117.130;2023-02-13T02:57:39;100976.44;;;15.18;55.84
60897;BME280;46749;32.932;-117.130;2023-02-13T03:00:28;100975.59;;;15.20;56.15
60897;BME280;46749;32.932;-117.130;2023-02-13T03:03:21;100976.53;;;15.22;56.22
60897;BME280;46749;32.932;-117.130;2023-02-13T03:06:21;100977.44;;;15.24;56.23
60897;BME280;46749;32.932;-117.130;2023-02-13T03:08:59;100970.50;;;15.26;56.28
60897;BME280;46749;32.932;-117.130;2023-02-13T03:11:48;100965.34;;;15.29;56.19
60897;BME280;46749;32.932;-117.130;2023-02-13T03:14:34;100969.72;;;15.30;56.55
60897;BME280;46749;32.932;-117.130;2023-02-13T03:17:01;100975.84;;;15.31;56.27
60897;BME280;46749;32.932;-117.130;2023-02-13T03:22:40;100970.72;;;15.35;56.38
60897;BME280;46749;32.932;-117.130;2023-02-13T03:42:04;100976.13;;;15.45;56.83
60897;BME280;46749;32.932;-117.130;2023-02-13T03:44:33;100979.69;;;15.47;56.82
60897;BME280;46749;32.932;-117.130;2023-02-13T03:47:02;100976.19;;;15.48;56.73
60897;BME280;46749;32.932;-117.130;2023-02-13T03:49:35;100984.06;;;15.49;56.74
60897;BME280;46749;32.932;-117.130;2023-02-13T03:54:59;100981.47;;;15.51;56.87
60897;BME280;46749;32.932;-117.130;2023-02-13T03:57:46;100985.91;;;15.53;57.01
60897;BME280;46749;32.932;-117.130;2023-02-13T04:00:39;100981.56;;;15.54;56.87
60897;BME280;46749;32.932;-117.130;2023-02-13T04:03:34;100987.69;;;15.54;57.08
60897;BME280;46749;32.932;-117.130;2023-02-13T04:06:25;100992.06;;;15.55;56.90
60897;BME280;46749;32.932;-117.130;2023-02-13T04:08:52;100981.59;;;15.57;56.91
60897;BME280;46749;32.932;-117.130;2023-02-13T04:11:29;100986.88;;;15.58;57.17
60897;BME280;46749;32.932;-117.130;2023-02-13T04:14:13;100979.94;;;15.59;57.19
60897;BME280;46749;32.932;-117.130;2023-02-13T04:16:43;100986.94;;;15.60;56.90
60897;BME280;46749;32.932;-117.130;2023-02-13T04:19:11;100989.56;;;15.61;57.02
60897;BME280;46749;32.932;-117.130;2023-02-13T04:21:39;100983.50;;;15.62;56.94
60897;BME280;46749;32.932;-117.130;2023-02-13T04:24:06;100977.41;;;15.63;57.08
60897;BME280;46749;32.932;-117.130;2023-02-13T04:26:38;100988.75;;;15.64;57.18
60897;BME280;46749;32.932;-117.130;2023-02-13T04:29:05;100983.53;;;15.64;57.01
60897;BME280;46749;32.932;-117.130;2023-02-13T04:31:31;100987.94;;;15.65;56.58
60897;BME280;46749;32.932;-117.130;2023-02-13T04:33:58;100985.34;;;15.67;57.04
60897;BME280;46749;32.932;-117.130;2023-02-13T04:36:24;100981.88;;;15.68;56.89
60897;BME280;46749;32.932;-117.130;2023-02-13T04:38:50;100979.25;;;15.68;56.89
60897;BME280;46749;32.932;-117.130;2023-02-13T04:41:16;100983.59;;;15.67;57.18
60897;BME280;46749;32.932;-117.130;2023-02-13T04:43:44;100982.75;;;15.68;57.18
60897;BME280;46749;32.932;-117.130;2023-02-13T04:46:10;100981.03;;;15.70;57.32
60897;BME280;46749;32.932;-117.130;2023-02-13T04:48:36;100979.28;;;15.69;56.93
60897;BME280;46749;32.932;-117.130;2023-02-13T04:51:02;100978.41;;;15.70;57.20
60897;BME280;46749;32.932;-117.130;2023-02-13T04:53:29;100974.94;;;15.71;57.16
60897;BME280;46749;32.932;-117.130;2023-02-13T04:55:55;100981.09;;;15.72;57.16
60897;BME280;46749;32.932;-117.130;2023-02-13T04:58:21;100973.25;;;15.73;57.04
60897;BME280;46749;32.932;-117.130;2023-02-13T05:00:47;100973.28;;;15.75;57.17
60897;BME280;46749;32.932;-117.130;2023-02-13T05:03:14;100981.09;;;15.73;57.38
60897;BME280;46749;32.932;-117.130;2023-02-13T05:05:40;100989.84;;;15.74;57.34
60897;BME280;46749;32.932;-117.130;2023-02-13T05:08:07;100998.59;;;15.76;57.20
60897;BME280;46749;32.932;-117.130;2023-02-13T05:10:34;100999.47;;;15.76;57.02
60897;BME280;46749;32.932;-117.130;2023-02-13T05:13:00;101004.78;;;15.78;57.30
60897;BME280;46749;32.932;-117.130;2023-02-13T05:15:27;101005.59;;;15.77;57.23
60897;BME280;46749;32.932;-117.130;2023-02-13T05:17:54;100996.00;;;15.77;57.14
60897;BME280;46749;32.932;-117.130;2023-02-13T05:20:20;100988.19;;;15.79;57.19
60897;BME280;46749;32.932;-117.130;2023-02-13T05:22:51;100982.97;;;15.80;57.18
60897;BME280;46749;32.932;-117.130;2023-02-13T05:25:37;100980.38;;;15.80;57.10
60897;BME280;46749;32.932;-117.130;2023-02-13T05:28:04;100977.72;;;15.79;57.27
60897;BME280;46749;32.932;-117.130;2023-02-13T05:30:51;100977.75;;;15.80;57.15
60897;BME280;46749;32.932;-117.130;2023-02-13T05:33:17;100975.16;;;15.82;57.10
60897;BME280;46749;32.932;-117.130;2023-02-13T05:35:43;100969.94;;;15.83;56.99
60897;BME280;46749;32.932;-117.130;2023-02-13T05:38:09;100963.81;;;15.83;57.29
60897;BME280;46749;32.932;-117.130;2023-02-13T05:40:36;100972.53;;;15.82;57.23
60897;BME280;46749;32.932;-117.130;2023-02-13T05:43:02;100979.53;;;15.83;57.35
60897;BME280;46749;32.932;-117.130;2023-02-13T05:45:28;100983.03;;;15.83;57.32
60897;BME280;46749;32.932;-117.130;2023-02-13T05:47:54;100988.31;;;15.85;57.01
60897;BME280;46749;32.932;-117.130;2023-02-13T05:50:20;100986.59;;;15.85;57.18
60897;BME280;46749;32.932;-117.130;2023-02-13T05:52:47;100989.19;;;15.85;57.22
60897;BME280;46749;32.932;-117.130;2023-02-13T05:55:13;100989.19;;;15.85;57.18
60897;BME280;46749;32.932;-117.130;2023-02-13T05:57:39;100983.97;;;15.85;57.19
60897;BME280;46749;32.932;-117.130;2023-02-13T06:00:06;100982.25;;;15.87;57.16
60897;BME280;46749;32.932;-117.130;2023-02-13T06:02:33;100975.28;;;15.89;57.13
60897;BME280;46749;32.932;-117.130;2023-02-13T06:04:59;100973.53;;;15.88;57.29
60897;BME280;46749;32.932;-117.130;2023-02-13T06:07:25;100966.53;;;15.87;57.35
60897;BME280;46749;32.932;-117.130;2023-02-13T06:09:51;100966.53;;;15.87;57.15
60897;BME280;46749;32.932;-117.130;2023-02-13T06:12:17;100963.06;;;15.88;56.93
60897;BME280;46749;32.932;-117.130;2023-02-13T06:14:43;100956.13;;;15.90;57.21
60897;BME280;46749;32.932;-117.130;2023-02-13T06:17:10;100958.75;;;15.90;57.42
60897;BME280;46749;32.932;-117.130;2023-02-13T06:19:36;100951.72;;;15.89;57.29
60897;BME280;46749;32.932;-117.130;2023-02-13T06:22:02;100951.72;;;15.89;57.17
60897;BME280;46749;32.932;-117.130;2023-02-13T06:24:28;100956.13;;;15.90;57.07
60897;BME280;46749;32.932;-117.130;2023-02-13T06:26:54;100953.53;;;15.92;57.20
60897;BME280;46749;32.932;-117.130;2023-02-13T06:29:20;100951.78;;;15.93;57.16
60897;BME280;46749;32.932;-117.130;2023-02-13T06:31:47;100950.91;;;15.92;57.37
60897;BME280;46749;32.932;-117.130;2023-02-13T06:34:13;100953.50;;;15.90;57.35
60897;BME280;46749;32.932;-117.130;2023-02-13T06:36:39;100946.53;;;15.91;57.11
60897;BME280;46749;32.932;-117.130;2023-02-13T06:39:09;100946.47;;;15.89;57.24
60897;BME280;46749;32.932;-117.130;2023-02-13T06:41:35;100948.22;;;15.89;57.16
60897;BME280;46749;32.932;-117.130;2023-02-13T06:44:01;100950.81;;;15.87;57.28
60897;BME280;46749;32.932;-117.130;2023-02-13T06:46:28;100942.94;;;15.86;57.19
60897;BME280;46749;32.932;-117.130;2023-02-13T06:48:54;100945.53;;;15.84;57.20
60897;BME280;46749;32.932;-117.130;2023-02-13T06:51:20;100952.53;;;15.85;57.19
60897;BME280;46749;32.932;-117.130;2023-02-13T06:53:46;100946.34;;;15.83;57.11
60897;BME280;46749;32.932;-117.130;2023-02-13T06:56:12;100948.97;;;15.83;57.10
60897;BME280;46749;32.932;-117.130;2023-02-13T06:58:39;100954.22;;;15.83;57.22
60897;BME280;46749;32.932;-117.130;2023-02-13T07:01:05;100947.22;;;15.82;56.58
60897;BME280;46749;32.932;-117.130;2023-02-13T07:03:31;100940.22;;;15.81;56.95
60897;BME280;46749;32.932;-117.130;2023-02-13T07:05:58;100937.59;;;15.81;57.00
60897;BME280;46749;32.932;-117.130;2023-02-13T07:08:24;100927.09;;;15.78;57.06
60897;BME280;46749;32.932;-117.130;2023-02-13T07:10:50;100925.34;;;15.79;56.56
60897;BME280;46749;32.932;-117.130;2023-02-13T07:13:16;100922.69;;;15.77;56.75
60897;BME280;46749;32.932;-117.130;2023-02-13T07:15:42;100927.03;;;15.77;56.57
60897;BME280;46749;32.932;-117.130;2023-02-13T07:18:09;100928.78;;;15.76;56.54
60897;BME280;46749;32.932;-117.130;2023-02-13T07:20:35;100926.16;;;15.76;56.75
60897;BME280;46749;32.932;-117.130;2023-02-13T07:23:04;100924.41;;;15.75;56.70
60897;BME280;46749;32.932;-117.130;2023-02-13T07:25:31;100927.88;;;15.74;56.63
60897;BME280;46749;32.932;-117.130;2023-02-13T07:28:02;100931.34;;;15.73;56.44
60897;BME280;46749;32.932;-117.130;2023-02-13T07:30:29;100930.47;;;15.73;56.38
60897;BME280;46749;32.932;-117.130;2023-02-13T07:33:03;100925.25;;;15.73;56.56
60897;BME280;46749;32.932;-117.130;2023-02-13T07:35:30;100920.84;;;15.72;56.30
60897;BME280;46749;32.932;-117.130;2023-02-13T07:37:56;100918.25;;;15.72;56.45
60897;BME280;46749;32.932;-117.130;2023-02-13T07:40:23;100921.69;;;15.71;56.33
60897;BME280;46749;32.932;-117.130;2023-02-13T07:42:50;100923.41;;;15.69;56.29
60897;BME280;46749;32.932;-117.130;2023-02-13T07:45:16;100928.63;;;15.67;56.33
60897;BME280;46749;32.932;-117.130;2023-02-13T07:47:42;100915.53;;;15.67;56.40
60897;BME280;46749;32.932;-117.130;2023-02-13T07:50:09;100912.88;;;15.66;56.14
60897;BME280;46749;32.932;-117.130;2023-02-13T07:52:36;100911.09;;;15.64;56.45
60897;BME280;46749;32.932;-117.130;2023-02-13T07:55:03;100905.84;;;15.64;56.36
60897;BME280;46749;32.932;-117.130;2023-02-13T07:57:29;100897.09;;;15.62;56.33
60897;BME280;46749;32.932;-117.130;2023-02-13T07:59:57;100890.06;;;15.61;56.28
60897;BME280;46749;32.932;-117.130;2023-02-13T08:02:23;100888.38;;;15.62;56.13
60897;BME280;46749;32.932;-117.130;2023-02-13T08:04:49;100896.16;;;15.60;56.24
60897;BME280;46749;32.932;-117.130;2023-02-13T08:07:16;100902.28;;;15.61;56.03
60897;BME280;46749;32.932;-117.130;2023-02-13T08:09:44;100894.44;;;15.61;56.15
60897;BME280;46749;32.932;-117.130;2023-02-13T08:12:29;100892.69;;;15.60;55.82
60897;BME280;46749;32.932;-117.130;2023-02-13T08:14:56;100887.38;;;15.57;56.24
60897;BME280;46749;32.932;-117.130;2023-02-13T08:17:22;100883.88;;;15.56;56.29
60897;BME280;46749;32.932;-117.130;2023-02-13T08:19:48;100882.13;;;15.57;56.08
60897;BME280;46749;32.932;-117.130;2023-02-13T08:22:14;100876.88;;;15.55;55.88
60897;BME280;46749;32.932;-117.130;2023-02-13T08:24:41;100882.09;;;15.54;56.17
60897;BME280;46749;32.932;-117.130;2023-02-13T08:27:11;100883.81;;;15.53;56.00
60897;BME280;46749;32.932;-117.130;2023-02-13T08:29:37;100874.19;;;15.52;55.87
60897;BME280;46749;32.932;-117.130;2023-02-13T08:32:03;100877.66;;;15.51;55.72
60897;BME280;46749;32.932;-117.130;2023-02-13T08:34:30;100876.78;;;15.51;55.90
60897;BME280;46749;32.932;-117.130;2023-02-13T08:36:56;100870.66;;;15.50;55.79
60897;BME280;46749;32.932;-117.130;2023-02-13T08:39:22;100877.63;;;15.50;55.95
60897;BME280;46749;32.932;-117.130;2023-02-13T08:41:49;100877.63;;;15.48;55.86
60897;BME280;46749;32.932;-117.130;2023-02-13T08:44:15;100875.88;;;15.49;55.83
60897;BME280;46749;32.932;-117.130;2023-02-13T08:46:41;100869.75;;;15.47;55.93
60897;BME280;46749;32.932;-117.130;2023-02-13T08:49:07;100872.31;;;15.45;56.00
60897;BME280;46749;32.932;-117.130;2023-02-13T08:51:33;100865.31;;;15.44;55.74
60897;BME280;46749;32.932;-117.130;2023-02-13T08:54:00;100860.06;;;15.44;55.79
60897;BME280;46749;32.932;-117.130;2023-02-13T08:56:26;100865.28;;;15.43;55.83
60897;BME280;46749;32.932;-117.130;2023-02-13T08:58:52;100864.41;;;15.42;56.10
60897;BME280;46749;32.932;-117.130;2023-02-13T09:01:19;100863.53;;;15.42;55.86
60897;BME280;46749;32.932;-117.130;2023-02-13T09:03:46;100864.41;;;15.41;56.06
60897;BME280;46749;32.932;-117.130;2023-02-13T09:06:12;100865.28;;;15.41;55.98
60897;BME280;46749;32.932;-117.130;2023-02-13T09:08:38;100863.50;;;15.40;55.73
60897;BME280;46749;32.932;-117.130;2023-02-13T09:11:05;100859.09;;;15.39;56.00
60897;BME280;46749;32.932;-117.130;2023-02-13T09:13:33;100854.72;;;15.38;55.76
60897;BME280;46749;32.932;-117.130;2023-02-13T09:16:00;100855.59;;;15.38;55.96
60897;BME280;46749;32.932;-117.130;2023-02-13T09:18:27;100859.09;;;15.37;55.86
60897;BME280;46749;32.932;-117.130;2023-02-13T09:21:04;100859.09;;;15.37;55.84
60897;BME280;46749;32.932;-117.130;2023-02-13T09:23:32;100854.72;;;15.36;55.76
60897;BME280;46749;32.932;-117.130;2023-02-13T09:26:01;100856.44;;;15.36;55.75
60897;BME280;46749;32.932;-117.130;2023-02-13T09:28:29;100859.03;;;15.34;55.75
60897;BME280;46749;32.932;-117.130;2023-02-13T09:30:55;100869.50;;;15.34;55.98
60897;BME280;46749;32.932;-117.130;2023-02-13T09:33:22;100860.72;;;15.32;55.83
60897;BME280;46749;32.932;-117.130;2023-02-13T09:35:49;100865.06;;;15.32;55.74
60897;BME280;46749;32.932;-117.130;2023-02-13T09:38:15;100862.47;;;15.32;55.87
60897;BME280;46749;32.932;-117.130;2023-02-13T09:40:48;100867.69;;;15.30;55.82
60897;BME280;46749;32.932;-117.130;2023-02-13T09:45:49;100860.69;;;15.29;55.67
60897;BME280;46749;32.932;-117.130;2023-02-13T09:48:32;100859.81;;;15.29;55.67
60897;BME280;46749;32.932;-117.130;2023-02-13T09:50:59;100848.47;;;15.28;55.62
60897;BME280;46749;32.932;-117.130;2023-02-13T09:53:27;100869.34;;;15.27;55.85
60897;BME280;46749;32.932;-117.130;2023-02-13T09:56:09;100858.00;;;15.26;55.92
60897;BME280;46749;32.932;-117.130;2023-02-13T09:59:12;100863.22;;;15.26;55.55
60897;BME280;46749;32.932;-117.130;2023-02-13T10:01:40;100865.84;;;15.26;55.83
60897;BME280;46749;32.932;-117.130;2023-02-13T10:04:31;100859.72;;;15.24;55.64
60897;BME280;46749;32.932;-117.130;2023-02-13T10:09:54;100839.63;;;15.22;55.64
60897;BME280;46749;32.932;-117.130;2023-02-13T10:12:45;100841.34;;;15.21;55.74
60897;BME280;46749;32.932;-117.130;2023-02-13T10:15:36;100833.50;;;15.21;55.57
60897;BME280;46749;32.932;-117.130;2023-02-13T10:18:32;100841.34;;;15.21;55.63
60897;BME280;46749;32.932;-117.130;2023-02-13T10:21:02;100822.09;;;15.19;55.70
60897;BME280;46749;32.932;-117.130;2023-02-13T10:23:39;100820.34;;;15.18;55.45
60897;BME280;46749;32.932;-117.130;2023-02-13T10:26:19;100825.56;;;15.18;55.34
60897;BME280;46749;32.932;-117.130;2023-02-13T10:29:16;100826.44;;;15.17;55.66
60897;BME280;46749;32.932;-117.130;2023-02-13T10:32:07;100823.81;;;15.17;55.42
60897;BME280;46749;32.932;-117.130;2023-02-13T10:34:41;100815.06;;;15.15;55.68
60897;BME280;46749;32.932;-117.130;2023-02-13T10:37:17;100821.97;;;15.13;55.62
60897;BME280;46749;32.932;-117.130;2023-02-13T10:39:47;100822.84;;;15.12;55.73
60897;BME280;46749;32.932;-117.130;2023-02-13T10:42:18;100823.72;;;15.13;55.65
60897;BME280;46749;32.932;-117.130;2023-02-13T10:45:05;100824.56;;;15.11;55.31
60897;BME280;46749;32.932;-117.130;2023-02-13T10:58:37;100828.84;;;15.08;55.47
60897;BME280;46749;32.932;-117.130;2023-02-13T11:01:15;100838.44;;;15.07;55.69
60897;BME280;46749;32.932;-117.130;2023-02-13T11:03:44;100839.28;;;15.06;55.35
60897;BME280;46749;32.932;-117.130;2023-02-13T11:06:15;100833.16;;;15.04;55.41
60897;BME280;46749;32.932;-117.130;2023-02-13T11:08:46;100825.31;;;15.04;55.48
60897;BME280;46749;32.932;-117.130;2023-02-13T11:14:12;100819.19;;;15.02;55.36
60897;BME280;46749;32.932;-117.130;2023-02-13T11:16:46;100813.03;;;15.02;55.45
60897;BME280;46749;32.932;-117.130;2023-02-13T11:19:30;100818.25;;;15.00;55.55
60897;BME280;46749;32.932;-117.130;2023-02-13T11:22:13;100814.75;;;15.00;55.30
60897;BME280;46749;32.932;-117.130;2023-02-13T11:24:52;100813.88;;;14.99;55.61
60897;BME280;46749;32.932;-117.130;2023-02-13T11:27:26;100813.88;;;14.99;55.44
60897;BME280;46749;32.932;-117.130;2023-02-13T11:29:55;100811.22;;;14.98;55.50
60897;BME280;46749;32.932;-117.130;2023-02-13T11:32:24;100819.09;;;14.98;55.42
60897;BME280;46749;32.932;-117.130;2023-02-13T11:34:51;100822.56;;;14.97;55.53
60897;BME280;46749;32.932;-117.130;2023-02-13T11:37:30;100819.88;;;14.95;55.47
60897;BME280;46749;32.932;-117.130;2023-02-13T11:39:59;100813.78;;;14.95;55.48
60897;BME280;46749;32.932;-117.130;2023-02-13T11:42:35;100812.00;;;14.94;55.30
60897;BME280;46749;32.932;-117.130;2023-02-13T11:47:40;100818.09;;;14.93;55.51
60897;BME280;46749;32.932;-117.130;2023-02-13T11:52:55;100805.88;;;14.92;55.39
60897;BME280;46749;32.932;-117.130;2023-02-13T11:55:37;100804.97;;;14.90;55.54
60897;BME280;46749;32.932;-117.130;2023-02-13T12:00:37;100806.69;;;14.89;55.39
60897;BME280;46749;32.932;-117.130;2023-02-13T12:03:29;100800.56;;;14.87;55.55
60897;BME280;46749;32.932;-117.130;2023-02-13T12:08:36;100802.28;;;14.87;55.33
60897;BME280;46749;32.932;-117.130;2023-02-13T12:11:33;100807.47;;;14.83;55.20
60897;BME280;46749;32.932;-117.130;2023-02-13T12:13:55;100812.72;;;14.85;55.27
60897;BME280;46749;32.932;-117.130;2023-02-13T12:16:42;100812.69;;;14.83;55.46
60897;BME280;46749;32.932;-117.130;2023-02-13T12:19:17;100815.31;;;14.83;55.28
60897;BME280;46749;32.932;-117.130;2023-02-13T12:21:52;100816.13;;;14.82;55.31
60897;BME280;46749;32.932;-117.130;2023-02-13T12:31:19;100831.78;;;14.79;55.33
60897;BME280;46749;32.932;-117.130;2023-02-13T12:36:52;100833.44;;;14.76;55.25
60897;BME280;46749;32.932;-117.130;2023-02-13T12:47:20;100833.41;;;14.74;55.40
60897;BME280;46749;32.932;-117.130;2023-02-13T12:55:43;100827.25;;;14.71;55.46
60897;BME280;46749;32.932;-117.130;2023-02-13T13:06:48;100793.28;;;14.71;55.41
60897;BME280;46749;32.932;-117.130;2023-02-13T13:09:42;100800.19;;;14.70;55.33
60897;BME280;46749;32.932;-117.130;2023-02-13T13:12:36;100786.22;;;14.68;55.60
60897;BME280;46749;32.932;-117.130;2023-02-13T13:15:20;100792.34;;;14.69;55.63
60897;BME280;46749;32.932;-117.130;2023-02-13T13:21:22;100809.72;;;14.67;55.35
60897;BME280;46749;32.932;-117.130;2023-02-13T13:28:55;100826.22;;;14.64;55.42
60897;BME280;46749;32.932;-117.130;2023-02-13T13:31:23;100823.59;;;14.64;55.42
60897;BME280;46749;32.932;-117.130;2023-02-13T13:34:01;100820.97;;;14.64;55.40
60897;BME280;46749;32.932;-117.130;2023-02-13T13:42:15;100818.38;;;14.64;55.37
60897;BME280;46749;32.932;-117.130;2023-02-13T13:50:03;100830.50;;;14.61;55.41
60897;BME280;46749;32.932;-117.130;2023-02-13T13:52:33;100843.56;;;14.61;55.35
60897;BME280;46749;32.932;-117.130;2023-02-13T13:55:02;100847.91;;;14.59;55.34
60897;BME280;46749;32.932;-117.130;2023-02-13T14:00:29;100846.97;;;14.58;55.20
60897;BME280;46749;32.932;-117.130;2023-02-13T14:03:12;100853.13;;;14.59;55.35
60897;BME280;46749;32.932;-117.130;2023-02-13T14:06:06;100854.00;;;14.59;55.29
60897;BME280;46749;32.932;-117.130;2023-02-13T14:13:50;100857.41;;;14.56;55.18
60897;BME280;46749;32.932;-117.130;2023-02-13T14:16:42;100833.00;;;14.54;55.57
60897;BME280;46749;32.932;-117.130;2023-02-13T14:19:31;100833.84;;;14.53;55.27
60897;BME280;46749;32.932;-117.130;2023-02-13T14:22:35;100845.19;;;14.54;55.42
60897;BME280;46749;32.932;-117.130;2023-02-13T14:25:19;100863.47;;;14.54;55.15
60897;BME280;46749;32.932;-117.130;2023-02-13T14:27:56;100862.56;;;14.52;55.26
60897;BME280;46749;32.932;-117.130;2023-02-13T14:30:32;100853.81;;;14.51;55.34
60897;BME280;46749;32.932;-117.130;2023-02-13T14:32:59;100856.41;;;14.51;55.50
60897;BME280;46749;32.932;-117.130;2023-02-13T14:35:29;100860.84;;;14.54;55.32
60897;BME280;46749;32.932;-117.130;2023-02-13T14:38:01;100853.88;;;14.53;55.53
60897;BME280;46749;32.932;-117.130;2023-02-13T14:45:53;100861.63;;;14.50;55.44
60897;BME280;46749;32.932;-117.130;2023-02-13T14:48:25;100869.44;;;14.48;55.45
60897;BME280;46749;32.932;-117.130;2023-02-13T14:50:55;100868.53;;;14.46;54.97
60897;BME280;46749;32.932;-117.130;2023-02-13T14:53:51;100867.63;;;14.46;55.46
60897;BME280;46749;32.932;-117.130;2023-02-13T14:56:19;100885.09;;;14.47;55.29
60897;BME280;46749;32.932;-117.130;2023-02-13T14:58:53;100888.59;;;14.47;55.37